Alpine Madeleine — VREC6 — position and weather

sailwx.info

Track history (hours):
 
Tides and Currents Weather Stations Pressure Air Temp Water Temp Dewpoint Dewpoint Depression Visibility Wind Speed Wind Dir Waves Ship Positions

Alpine Madeleine

Last reported at 2018-Jun-24 10:53 UTC. Time now 2018-Jul-19 13:08 UTC.
Position N 22°51' E 119°57'.
Warning: this ship's position is 25 days out of date.

Length 183 m; draft 7.5 m.

Type: Tanker. MMSI: 477110300.

Date/timePositionNaut miles runAvg speedWind from/ knotsBaromVisibWave heightAir tempDewpointWater temp
2018-Jun-24 10:53N 22°51' E 119°57'613.7
2018-Jun-24 10:27N 22°46' E 119°55'613.6
2018-Jun-24 10:00N 22°39' E 119°55'713.3
2018-Jun-24 09:30N 22°33' E 119°55'713.1
2018-Jun-24 09:00N 22°26' E 119°55'612.6
2018-Jun-24 08:30N 22°21' E 119°52'612.2
2018-Jun-24 08:00N 22°16' E 119°48'  
2018-Jun-19 12:49N 01°28' E 104°32'513.5
2018-Jun-19 12:28N 01°25' E 104°28'612.9
2018-Jun-19 11:59N 01°20' E 104°24'712.2
2018-Jun-19 11:26N 01°17' E 104°18'612.8
2018-Jun-19 10:57N 01°16' E 104°12'612.9
2018-Jun-19 10:30N 01°15' E 104°06'712.9
2018-Jun-19 10:00N 01°14' E 103°60'612.5
2018-Jun-19 09:30N 01°12' E 103°54'611.3
2018-Jun-19 09:00N 01°10' E 103°49'510.6
2018-Jun-19 08:30N 01°06' E 103°45'5 9.4
2018-Jun-19 07:59N 01°03' E 103°41'511.2
2018-Jun-19 07:30N 01°05' E 103°36'611.7
2018-Jun-19 07:01N 01°09' E 103°32'611.9
2018-Jun-19 06:31N 01°11' E 103°38'3 6.2
2018-Jun-19 05:59N 01°12' E 103°41'0 0.9
2018-Jun-19 05:26N 01°12' E 103°41'0 0.0
2018-Jun-19 04:44N 01°12' E 103°41'0 0.2
2018-Jun-19 04:23N 01°12' E 103°41'0 0.0
2018-Jun-19 03:56N 01°12' E 103°41'0 0.0
2018-Jun-19 03:26N 01°12' E 103°41'0 0.1
2018-Jun-19 02:56N 01°12' E 103°41'0 0.1
2018-Jun-19 02:26N 01°12' E 103°41'0 0.0
2018-Jun-19 01:56N 01°12' E 103°41'0 0.0
2018-Jun-19 01:26N 01°12' E 103°41'0 0.0
2018-Jun-19 00:58N 01°12' E 103°41'0 0.0
2018-Jun-19 00:29N 01°12' E 103°41'0 0.0
2018-Jun-18 23:58N 01°12' E 103°41'0 0.0
2018-Jun-18 23:22N 01°12' E 103°41'0 0.0
2018-Jun-18 22:56N 01°12' E 103°41'0 0.1
2018-Jun-18 22:29N 01°12' E 103°42'0 0.1
2018-Jun-18 21:41N 01°12' E 103°41'0 0.0
2018-Jun-18 21:28N 01°12' E 103°41'0 0.1
2018-Jun-18 20:59N 01°12' E 103°42'0 0.1
2018-Jun-18 20:29N 01°12' E 103°42'0 0.0
2018-Jun-18 19:59N 01°12' E 103°42'0 0.0
2018-Jun-18 19:29N 01°12' E 103°42'0 0.0
2018-Jun-18 18:56N 01°12' E 103°42'0 0.0
2018-Jun-18 18:29N 01°12' E 103°42'0 0.2
2018-Jun-18 17:58N 01°12' E 103°41'0 0.0
2018-Jun-18 17:29N 01°12' E 103°41'0 0.0
2018-Jun-18 16:49N 01°12' E 103°41'0 0.3
2018-Jun-18 16:25N 01°12' E 103°41'0 0.2
2018-Jun-18 15:58N 01°12' E 103°41'0 0.0
2018-Jun-18 15:29N 01°12' E 103°41'0 0.0
2018-Jun-18 14:59N 01°12' E 103°41'0 0.1
2018-Jun-18 14:28N 01°12' E 103°41'0 0.0
2018-Jun-18 13:56N 01°12' E 103°41'0 0.0
2018-Jun-18 13:29N 01°12' E 103°41'0 0.1
2018-Jun-18 12:56N 01°12' E 103°41'0 0.1
2018-Jun-18 12:28N 01°12' E 103°41'0 0.0
2018-Jun-18 11:58N 01°12' E 103°41'0 0.1
2018-Jun-18 11:25N 01°12' E 103°41'0 0.1
2018-Jun-18 10:59N 01°12' E 103°41'0 0.1
2018-Jun-18 10:25N 01°12' E 103°41'0 0.2
2018-Jun-18 09:59N 01°12' E 103°41'0 0.1
2018-Jun-18 09:26N 01°12' E 103°41'0 0.1
2018-Jun-18 08:52N 01°12' E 103°41'0 0.0
2018-Jun-18 08:26N 01°12' E 103°41'0 0.1
2018-Jun-18 07:53N 01°12' E 103°41'0 0.0
2018-Jun-18 07:30N 01°12' E 103°41'1 1.7
2018-Jun-18 06:59N 01°12' E 103°41'4 8.2
2018-Jun-18 06:30N 01°12' E 103°37'1 2.7
2018-Jun-18 05:59N 01°12' E 103°35'2 4.9
2018-Jun-18 05:30N 01°12' E 103°33'4 6.4
2018-Jun-18 04:57N 01°11' E 103°30'1 1.4
2018-Jun-18 04:30N 01°11' E 103°29'2 3.3
2018-Jun-18 03:58N 01°11' E 103°27'3 5.4
2018-Jun-18 03:29N 01°12' E 103°25'3 5.6
2018-Jun-18 02:59N 01°14' E 103°23'3 6.5
2018-Jun-18 02:29N 01°16' E 103°20'4 7.3
2018-Jun-18 02:00N 01°18' E 103°18'3 6.2
2018-Jun-18 01:27N 01°20' E 103°15'  
Track history (hours):
 
Tides and Currents Weather Stations Pressure Air Temp Water Temp Dewpoint Dewpoint Depression Visibility Wind Speed Wind Dir Waves Ship Positions

Alpine Madeleine

Last reported at 2018-Jun-24 10:53 UTC. Time now 2018-Jul-19 13:08 UTC.
Position N 22°51' E 119°57'.
Warning: this ship's position is 25 days out of date.

Length 183 m; draft 7.5 m.

Type: Tanker. MMSI: 477110300.

Date/timePositionNaut miles runAvg speedWind from/ knotsBaromVisibWave heightAir tempDewpointWater temp
2018-Jun-24 10:53N 22°51' E 119°57'613.7
2018-Jun-24 10:27N 22°46' E 119°55'613.6
2018-Jun-24 10:00N 22°39' E 119°55'713.3
2018-Jun-24 09:30N 22°33' E 119°55'713.1
2018-Jun-24 09:00N 22°26' E 119°55'612.6
2018-Jun-24 08:30N 22°21' E 119°52'612.2
2018-Jun-24 08:00N 22°16' E 119°48'  
2018-Jun-19 12:49N 01°28' E 104°32'513.5
2018-Jun-19 12:28N 01°25' E 104°28'612.9
2018-Jun-19 11:59N 01°20' E 104°24'712.2
2018-Jun-19 11:26N 01°17' E 104°18'612.8
2018-Jun-19 10:57N 01°16' E 104°12'612.9
2018-Jun-19 10:30N 01°15' E 104°06'712.9
2018-Jun-19 10:00N 01°14' E 103°60'612.5
2018-Jun-19 09:30N 01°12' E 103°54'611.3
2018-Jun-19 09:00N 01°10' E 103°49'510.6
2018-Jun-19 08:30N 01°06' E 103°45'5 9.4
2018-Jun-19 07:59N 01°03' E 103°41'511.2
2018-Jun-19 07:30N 01°05' E 103°36'611.7
2018-Jun-19 07:01N 01°09' E 103°32'611.9
2018-Jun-19 06:31N 01°11' E 103°38'3 6.2
2018-Jun-19 05:59N 01°12' E 103°41'0 0.9
2018-Jun-19 05:26N 01°12' E 103°41'0 0.0
2018-Jun-19 04:44N 01°12' E 103°41'0 0.2
2018-Jun-19 04:23N 01°12' E 103°41'0 0.0
2018-Jun-19 03:56N 01°12' E 103°41'0 0.0
2018-Jun-19 03:26N 01°12' E 103°41'0 0.1
2018-Jun-19 02:56N 01°12' E 103°41'0 0.1
2018-Jun-19 02:26N 01°12' E 103°41'0 0.0
2018-Jun-19 01:56N 01°12' E 103°41'0 0.0
2018-Jun-19 01:26N 01°12' E 103°41'0 0.0
2018-Jun-19 00:58N 01°12' E 103°41'0 0.0
2018-Jun-19 00:29N 01°12' E 103°41'0 0.0
2018-Jun-18 23:58N 01°12' E 103°41'0 0.0
2018-Jun-18 23:22N 01°12' E 103°41'0 0.0
2018-Jun-18 22:56N 01°12' E 103°41'0 0.1
2018-Jun-18 22:29N 01°12' E 103°42'0 0.1
2018-Jun-18 21:41N 01°12' E 103°41'0 0.0
2018-Jun-18 21:28N 01°12' E 103°41'0 0.1
2018-Jun-18 20:59N 01°12' E 103°42'0 0.1
2018-Jun-18 20:29N 01°12' E 103°42'0 0.0
2018-Jun-18 19:59N 01°12' E 103°42'0 0.0
2018-Jun-18 19:29N 01°12' E 103°42'0 0.0
2018-Jun-18 18:56N 01°12' E 103°42'0 0.0
2018-Jun-18 18:29N 01°12' E 103°42'0 0.2
2018-Jun-18 17:58N 01°12' E 103°41'0 0.0
2018-Jun-18 17:29N 01°12' E 103°41'0 0.0
2018-Jun-18 16:49N 01°12' E 103°41'0 0.3
2018-Jun-18 16:25N 01°12' E 103°41'0 0.2
2018-Jun-18 15:58N 01°12' E 103°41'0 0.0
2018-Jun-18 15:29N 01°12' E 103°41'0 0.0
2018-Jun-18 14:59N 01°12' E 103°41'0 0.1
2018-Jun-18 14:28N 01°12' E 103°41'0 0.0
2018-Jun-18 13:56N 01°12' E 103°41'0 0.0
2018-Jun-18 13:29N 01°12' E 103°41'0 0.1
2018-Jun-18 12:56N 01°12' E 103°41'0 0.1
2018-Jun-18 12:28N 01°12' E 103°41'0 0.0
2018-Jun-18 11:58N 01°12' E 103°41'0 0.1
2018-Jun-18 11:25N 01°12' E 103°41'0 0.1
2018-Jun-18 10:59N 01°12' E 103°41'0 0.1
2018-Jun-18 10:25N 01°12' E 103°41'0 0.2
2018-Jun-18 09:59N 01°12' E 103°41'0 0.1
2018-Jun-18 09:26N 01°12' E 103°41'0 0.1
2018-Jun-18 08:52N 01°12' E 103°41'0 0.0
2018-Jun-18 08:26N 01°12' E 103°41'0 0.1
2018-Jun-18 07:53N 01°12' E 103°41'0 0.0
2018-Jun-18 07:30N 01°12' E 103°41'1 1.7
2018-Jun-18 06:59N 01°12' E 103°41'4 8.2
2018-Jun-18 06:30N 01°12' E 103°37'1 2.7
2018-Jun-18 05:59N 01°12' E 103°35'2 4.9
2018-Jun-18 05:30N 01°12' E 103°33'4 6.4
2018-Jun-18 04:57N 01°11' E 103°30'1 1.4
2018-Jun-18 04:30N 01°11' E 103°29'2 3.3
2018-Jun-18 03:58N 01°11' E 103°27'3 5.4
2018-Jun-18 03:29N 01°12' E 103°25'3 5.6
2018-Jun-18 02:59N 01°14' E 103°23'3 6.5
2018-Jun-18 02:29N 01°16' E 103°20'4 7.3
2018-Jun-18 02:00N 01°18' E 103°18'3 6.2
2018-Jun-18 01:27N 01°20' E 103°15'  

Dump ship's entire track history